Weather at Westchester Medical Center Heliport

Public forecast

Using degrees Fahrenheit for public forecast. Weather courtesy of forecast.io.

Closest aviation weather report (METAR) to Westchester Medical Center Heliport

Closest report is Westchester County Airport, 4.6 nm (8.4 km) ESE. Retrieved 2022/01/22 19:56 UTC (44 minutes ago):

KHPN 221956Z 31005KT 10SM CLR M02/M12 A3023 RMK AO2 SLP249 T10221117

Closest aviation forecast (TAF) to Westchester Medical Center Heliport

Closest forecast is Westchester County Airport, 4.6 nm (8.4 km) ESE. Retrieved 2022/01/22 18:36 UTC (2 hours ago):

TAF KHPN 221733Z 2218/2318 35005KT P6SM SKC FM222000 VRB03KT P6SM BKN250 FM231300 28008KT P6SM SCT050 SCT150 BKN250 AMD NOT SKED